sensor_id;sensor_type;location;lat;lon;timestamp;pressure;altitude;pressure_sealevel;temperature;humidity
49459;BME280;35354;51.296;16.924;2023-05-08T00:00:57;100677.75;;;5.77;91.13
49459;BME280;35354;51.296;16.924;2023-05-08T00:03:23;100725.72;;;6.09;90.98
49459;BME280;35354;51.296;16.924;2023-05-08T00:05:48;100730.88;;;6.12;90.84
49459;BME280;35354;51.296;16.924;2023-05-08T00:08:14;100676.94;;;5.73;91.26
49459;BME280;35354;51.296;16.924;2023-05-08T00:10:39;100706.91;;;5.91;91.50
49459;BME280;35354;51.296;16.924;2023-05-08T00:13:04;100739.50;;;6.09;91.34
49459;BME280;35354;51.296;16.924;2023-05-08T00:15:30;100730.13;;;5.97;91.43
49459;BME280;35354;51.296;16.924;2023-05-08T00:17:55;100713.84;;;5.88;91.57
49459;BME280;35354;51.296;16.924;2023-05-08T00:20:20;100695.03;;;5.73;91.60
49459;BME280;35354;51.296;16.924;2023-05-08T00:22:46;100688.19;;;5.69;91.78
49459;BME280;35354;51.296;16.924;2023-05-08T00:25:11;100747.41;;;5.94;91.83
49459;BME280;35354;51.296;16.924;2023-05-08T00:27:36;100728.56;;;5.80;91.94
49459;BME280;35354;51.296;16.924;2023-05-08T00:30:02;100743.97;;;5.89;91.76
49459;BME280;35354;51.296;16.924;2023-05-08T00:32:27;100708.00;;;5.69;91.63
49459;BME280;35354;51.296;16.924;2023-05-08T00:34:53;100708.88;;;5.66;92.14
49459;BME280;35354;51.296;16.924;2023-05-08T00:37:18;100727.72;;;5.79;92.04
49459;BME280;35354;51.296;16.924;2023-05-08T00:39:43;100689.16;;;5.58;91.58
49459;BME280;35354;51.296;16.924;2023-05-08T00:42:09;100734.63;;;5.79;91.77
49459;BME280;35354;51.296;16.924;2023-05-08T00:44:34;100731.16;;;5.76;91.97
49459;BME280;35354;51.296;16.924;2023-05-08T00:46:59;100669.53;;;5.40;91.95
49459;BME280;35354;51.296;16.924;2023-05-08T00:49:25;100742.44;;;5.71;92.40
49459;BME280;35354;51.296;16.924;2023-05-08T00:51:53;100686.78;;;5.36;92.71
49459;BME280;35354;51.296;16.924;2023-05-08T00:54:20;100737.34;;;5.63;93.06
49459;BME280;35354;51.296;16.924;2023-05-08T00:56:46;100724.47;;;5.56;93.04
49459;BME280;35354;51.296;16.924;2023-05-08T00:59:14;100689.34;;;5.36;92.67
49459;BME280;35354;51.296;16.924;2023-05-08T01:01:41;100741.75;;;5.52;92.89
49459;BME280;35354;51.296;16.924;2023-05-08T01:04:07;100746.94;;;5.52;93.25
49459;BME280;35354;51.296;16.924;2023-05-08T01:06:33;100708.31;;;5.31;93.55
49459;BME280;35354;51.296;16.924;2023-05-08T01:08:59;100699.78;;;5.24;93.67
49459;BME280;35354;51.296;16.924;2023-05-08T01:14:19;100740.16;;;5.36;94.31
49459;BME280;35354;51.296;16.924;2023-05-08T01:19:55;100751.28;;;5.42;93.77
49459;BME280;35354;51.296;16.924;2023-05-08T01:34:14;100758.28;;;5.26;94.54
49459;BME280;35354;51.296;16.924;2023-05-08T01:36:50;100734.34;;;5.05;94.93
49459;BME280;35354;51.296;16.924;2023-05-08T01:39:21;100739.44;;;5.15;95.18
49459;BME280;35354;51.296;16.924;2023-05-08T01:41:59;100752.34;;;5.18;94.87
49459;BME280;35354;51.296;16.924;2023-05-08T01:44:35;100733.53;;;4.98;95.42
49459;BME280;35354;51.296;16.924;2023-05-08T01:47:05;100748.16;;;5.02;95.88
49459;BME280;35354;51.296;16.924;2023-05-08T01:49:39;100707.03;;;4.73;95.78
49459;BME280;35354;51.296;16.924;2023-05-08T01:52:32;100756.75;;;5.06;95.67
49459;BME280;35354;51.296;16.924;2023-05-08T01:55:07;100700.13;;;4.75;95.42
49459;BME280;35354;51.296;16.924;2023-05-08T01:57:36;100747.28;;;5.03;95.44
49459;BME280;35354;51.296;16.924;2023-05-08T02:00:03;100714.69;;;4.87;95.21
49459;BME280;35354;51.296;16.924;2023-05-08T02:02:30;100746.34;;;5.13;94.77
49459;BME280;35354;51.296;16.924;2023-05-08T02:04:57;100725.78;;;4.96;94.51
49459;BME280;35354;51.296;16.924;2023-05-08T02:07:23;100736.09;;;4.99;94.35
49459;BME280;35354;51.296;16.924;2023-05-08T02:09:50;100719.84;;;4.85;94.51
49459;BME280;35354;51.296;16.924;2023-05-08T02:12:16;100747.31;;;4.95;94.22
49459;BME280;35354;51.296;16.924;2023-05-08T02:14:44;100737.03;;;4.91;94.23
49459;BME280;35354;51.296;16.924;2023-05-08T02:17:14;100754.22;;;4.95;94.63
49459;BME280;35354;51.296;16.924;2023-05-08T02:19:42;100720.72;;;4.80;94.78
49459;BME280;35354;51.296;16.924;2023-05-08T02:22:09;100726.75;;;4.82;94.94
49459;BME280;35354;51.296;16.924;2023-05-08T02:24:35;100759.38;;;4.98;94.69
49459;BME280;35354;51.296;16.924;2023-05-08T02:27:01;100767.97;;;5.02;94.83
49459;BME280;35354;51.296;16.924;2023-05-08T02:29:28;100700.25;;;4.52;95.01
49459;BME280;35354;51.296;16.924;2023-05-08T02:31:54;100777.44;;;4.96;94.88
49459;BME280;35354;51.296;16.924;2023-05-08T02:34:22;100711.41;;;4.57;94.87
49459;BME280;35354;51.296;16.924;2023-05-08T02:36:49;100737.13;;;4.72;94.91
49459;BME280;35354;51.296;16.924;2023-05-08T02:39:17;100770.59;;;4.88;94.84
49459;BME280;35354;51.296;16.924;2023-05-08T02:41:43;100767.16;;;4.89;95.21
49459;BME280;35354;51.296;16.924;2023-05-08T02:44:09;100770.66;;;4.79;95.50
49459;BME280;35354;51.296;16.924;2023-05-08T02:46:43;100771.53;;;4.78;95.91
49459;BME280;35354;51.296;16.924;2023-05-08T02:51:53;100789.59;;;4.81;95.81
49459;BME280;35354;51.296;16.924;2023-05-08T02:54:42;100798.16;;;4.80;95.75
49459;BME280;35354;51.296;16.924;2023-05-08T03:02:28;100802.44;;;4.87;96.12
49459;BME280;35354;51.296;16.924;2023-05-08T03:05:16;100792.16;;;4.79;95.96
49459;BME280;35354;51.296;16.924;2023-05-08T03:07:44;100793.91;;;4.77;96.51
49459;BME280;35354;51.296;16.924;2023-05-08T03:10:12;100766.44;;;4.64;96.26
49459;BME280;35354;51.296;16.924;2023-05-08T03:12:43;100799.91;;;4.74;96.41
49459;BME280;35354;51.296;16.924;2023-05-08T03:15:24;100805.94;;;4.78;96.52
49459;BME280;35354;51.296;16.924;2023-05-08T03:18:01;100757.88;;;4.53;96.11
49459;BME280;35354;51.296;16.924;2023-05-08T03:20:32;100771.59;;;4.61;96.06
49459;BME280;35354;51.296;16.924;2023-05-08T03:22:58;100793.03;;;4.70;96.19
49459;BME280;35354;51.296;16.924;2023-05-08T03:25:25;100787.91;;;4.72;95.98
49459;BME280;35354;51.296;16.924;2023-05-08T03:27:51;100787.03;;;4.67;95.81
49459;BME280;35354;51.296;16.924;2023-05-08T03:30:19;100784.41;;;4.76;95.56
49459;BME280;35354;51.296;16.924;2023-05-08T03:32:45;100769.91;;;4.49;95.89
49459;BME280;35354;51.296;16.924;2023-05-08T03:35:13;100800.84;;;4.61;96.13
49459;BME280;35354;51.296;16.924;2023-05-08T03:37:39;100804.25;;;4.66;96.10
49459;BME280;35354;51.296;16.924;2023-05-08T03:40:06;100793.13;;;4.57;96.21
49459;BME280;35354;51.296;16.924;2023-05-08T03:42:32;100768.22;;;4.48;96.23
49459;BME280;35354;51.296;16.924;2023-05-08T03:44:58;100769.09;;;4.39;96.08
49459;BME280;35354;51.296;16.924;2023-05-08T03:47:25;100799.97;;;4.64;96.11
49459;BME280;35354;51.296;16.924;2023-05-08T03:49:51;100801.69;;;4.65;95.98
49459;BME280;35354;51.296;16.924;2023-05-08T03:52:17;100769.91;;;4.54;95.65
49459;BME280;35354;51.296;16.924;2023-05-08T03:54:42;100804.25;;;4.72;95.63
49459;BME280;35354;51.296;16.924;2023-05-08T03:57:07;100779.31;;;4.68;95.65
49459;BME280;35354;51.296;16.924;2023-05-08T04:00:18;100794.63;;;4.99;94.96
49459;BME280;35354;51.296;16.924;2023-05-08T04:05:37;100818.13;;;5.87;91.69
49459;BME280;35354;51.296;16.924;2023-05-08T04:08:23;100773.97;;;6.10;89.82
49459;BME280;35354;51.296;16.924;2023-05-08T04:10:56;100803.19;;;6.93;85.98
49459;BME280;35354;51.296;16.924;2023-05-08T04:13:26;100785.69;;;7.68;83.03
49459;BME280;35354;51.296;16.924;2023-05-08T04:16:02;100819.91;;;8.36;79.72
49459;BME280;35354;51.296;16.924;2023-05-08T04:18:30;100796.13;;;8.14;79.19
49459;BME280;35354;51.296;16.924;2023-05-08T04:20:59;100811.72;;;8.11;79.60
49459;BME280;35354;51.296;16.924;2023-05-08T04:23:27;100812.88;;;7.96;79.89
49459;BME280;35354;51.296;16.924;2023-05-08T04:25:54;100791.28;;;7.94;80.45
49459;BME280;35354;51.296;16.924;2023-05-08T04:28:21;100825.97;;;8.38;79.30
49459;BME280;35354;51.296;16.924;2023-05-08T04:30:47;100828.25;;;8.98;77.17
49459;BME280;35354;51.296;16.924;2023-05-08T04:33:14;100828.94;;;9.81;74.03
49459;BME280;35354;51.296;16.924;2023-05-08T04:35:40;100837.63;;;10.48;71.12
49459;BME280;35354;51.296;16.924;2023-05-08T04:38:05;100830.53;;;10.85;70.05
49459;BME280;35354;51.296;16.924;2023-05-08T04:40:30;100831.44;;;11.13;69.27
49459;BME280;35354;51.296;16.924;2023-05-08T04:42:56;100820.88;;;10.59;69.24
49459;BME280;35354;51.296;16.924;2023-05-08T04:45:21;100846.16;;;10.21;70.59
49459;BME280;35354;51.296;16.924;2023-05-08T04:47:47;100852.09;;;9.92;71.66
49459;BME280;35354;51.296;16.924;2023-05-08T04:50:12;100855.50;;;9.94;72.57
49459;BME280;35354;51.296;16.924;2023-05-08T04:52:37;100866.19;;;10.52;70.45
49459;BME280;35354;51.296;16.924;2023-05-08T04:55:03;100859.25;;;10.83;69.25
49459;BME280;35354;51.296;16.924;2023-05-08T04:57:28;100862.50;;;11.49;67.74
49459;BME280;35354;51.296;16.924;2023-05-08T04:59:54;100857.38;;;12.27;65.64
49459;BME280;35354;51.296;16.924;2023-05-08T05:02:19;100866.31;;;12.93;63.52
49459;BME280;35354;51.296;16.924;2023-05-08T05:04:45;100880.16;;;12.48;63.51
49459;BME280;35354;51.296;16.924;2023-05-08T05:07:10;100880.56;;;11.85;65.32
49459;BME280;35354;51.296;16.924;2023-05-08T05:09:36;100874.53;;;11.55;67.04
49459;BME280;35354;51.296;16.924;2023-05-08T05:12:04;100867.28;;;11.63;67.33
49459;BME280;35354;51.296;16.924;2023-05-08T05:14:30;100875.72;;;12.26;66.60
49459;BME280;35354;51.296;16.924;2023-05-08T05:16:56;100875.81;;;13.43;63.55
49459;BME280;35354;51.296;16.924;2023-05-08T05:19:22;100877.66;;;14.68;59.97
49459;BME280;35354;51.296;16.924;2023-05-08T05:21:47;100874.41;;;14.63;58.09
49459;BME280;35354;51.296;16.924;2023-05-08T05:24:13;100872.88;;;14.78;57.83
49459;BME280;35354;51.296;16.924;2023-05-08T05:26:38;100883.47;;;13.49;59.87
49459;BME280;35354;51.296;16.924;2023-05-08T05:29:04;100879.13;;;13.01;61.96
49459;BME280;35354;51.296;16.924;2023-05-08T05:31:30;100878.50;;;13.18;61.83
49459;BME280;35354;51.296;16.924;2023-05-08T05:33:56;100867.94;;;13.21;61.63
49459;BME280;35354;51.296;16.924;2023-05-08T05:36:22;100874.09;;;13.65;60.56
49459;BME280;35354;51.296;16.924;2023-05-08T05:38:48;100873.94;;;13.90;58.00
49459;BME280;35354;51.296;16.924;2023-05-08T05:41:15;100880.03;;;14.33;58.11
49459;BME280;35354;51.296;16.924;2023-05-08T05:43:41;100872.84;;;15.17;56.22
49459;BME280;35354;51.296;16.924;2023-05-08T05:46:07;100872.53;;;14.85;56.29
49459;BME280;35354;51.296;16.924;2023-05-08T05:48:34;100888.03;;;14.71;56.92
49459;BME280;35354;51.296;16.924;2023-05-08T05:51:00;100888.59;;;14.16;57.94
49459;BME280;35354;51.296;16.924;2023-05-08T05:53:26;100883.28;;;14.18;58.55
49459;BME280;35354;51.296;16.924;2023-05-08T05:55:52;100885.59;;;14.26;57.97
49459;BME280;35354;51.296;16.924;2023-05-08T05:58:18;100882.91;;;14.68;56.65
49459;BME280;35354;51.296;16.924;2023-05-08T06:00:44;100883.63;;;15.11;56.56
49459;BME280;35354;51.296;16.924;2023-05-08T06:03:12;100891.50;;;15.30;55.91
49459;BME280;35354;51.296;16.924;2023-05-08T06:05:38;100890.56;;;15.31;56.25
49459;BME280;35354;51.296;16.924;2023-05-08T06:08:04;100901.94;;;14.53;56.62
49459;BME280;35354;51.296;16.924;2023-05-08T06:10:30;100900.91;;;14.35;57.40
49459;BME280;35354;51.296;16.924;2023-05-08T06:12:55;100869.22;;;14.61;57.24
49459;BME280;35354;51.296;16.924;2023-05-08T06:15:21;100892.75;;;15.21;55.57
49459;BME280;35354;51.296;16.924;2023-05-08T06:17:46;100890.38;;;15.90;54.78
49459;BME280;35354;51.296;16.924;2023-05-08T06:20:12;100890.16;;;15.40;54.81
49459;BME280;35354;51.296;16.924;2023-05-08T06:22:37;100891.22;;;15.17;56.15
49459;BME280;35354;51.296;16.924;2023-05-08T06:25:05;100886.03;;;14.96;56.45
49459;BME280;35354;51.296;16.924;2023-05-08T06:27:32;100900.13;;;17.08;53.69
49459;BME280;35354;51.296;16.924;2023-05-08T06:30:02;100891.38;;;18.77;49.37
49459;BME280;35354;51.296;16.924;2023-05-08T06:32:28;100896.91;;;19.85;47.32
49459;BME280;35354;51.296;16.924;2023-05-08T06:34:54;100908.09;;;20.16;45.56
49459;BME280;35354;51.296;16.924;2023-05-08T06:37:19;100908.81;;;18.94;46.11
49459;BME280;35354;51.296;16.924;2023-05-08T06:39:45;100902.16;;;18.14;48.01
49459;BME280;35354;51.296;16.924;2023-05-08T06:42:10;100906.84;;;18.98;47.87
49459;BME280;35354;51.296;16.924;2023-05-08T06:44:39;100935.81;;;18.69;46.99
49459;BME280;35354;51.296;16.924;2023-05-08T06:47:05;100939.16;;;19.73;45.25
49459;BME280;35354;51.296;16.924;2023-05-08T06:49:34;100919.22;;;20.86;43.38
49459;BME280;35354;51.296;16.924;2023-05-08T06:51:59;100913.06;;;21.48;43.33
49459;BME280;35354;51.296;16.924;2023-05-08T06:54:25;100907.34;;;22.26;42.09
49459;BME280;35354;51.296;16.924;2023-05-08T06:56:51;100910.47;;;23.34;40.87
49459;BME280;35354;51.296;16.924;2023-05-08T06:59:17;100901.56;;;23.35;40.41
49459;BME280;35354;51.296;16.924;2023-05-08T07:01:43;100913.94;;;23.68;39.63
49459;BME280;35354;51.296;16.924;2023-05-08T07:04:08;100912.97;;;23.58;39.41
49459;BME280;35354;51.296;16.924;2023-05-08T07:06:33;100920.50;;;23.53;39.57
49459;BME280;35354;51.296;16.924;2023-05-08T07:08:59;100922.66;;;23.59;39.83
49459;BME280;35354;51.296;16.924;2023-05-08T07:11:24;100915.91;;;24.51;38.66
49459;BME280;35354;51.296;16.924;2023-05-08T07:13:50;100914.69;;;24.55;38.14
49459;BME280;35354;51.296;16.924;2023-05-08T07:16:15;100909.84;;;26.10;37.06
49459;BME280;35354;51.296;16.924;2023-05-08T07:18:41;100910.00;;;26.19;36.39
49459;BME280;35354;51.296;16.924;2023-05-08T07:21:07;100916.59;;;26.34;35.58
49459;BME280;35354;51.296;16.924;2023-05-08T07:23:33;100887.09;;;26.06;35.45
49459;BME280;35354;51.296;16.924;2023-05-08T07:25:58;100932.56;;;25.16;36.43
49459;BME280;35354;51.296;16.924;2023-05-08T07:28:24;100911.91;;;24.57;36.79
49459;BME280;35354;51.296;16.924;2023-05-08T07:30:49;100918.28;;;24.12;37.50
49459;BME280;35354;51.296;16.924;2023-05-08T07:33:14;100903.19;;;24.02;37.64
49459;BME280;35354;51.296;16.924;2023-05-08T07:35:40;100918.25;;;23.92;37.81
49459;BME280;35354;51.296;16.924;2023-05-08T07:38:06;100920.53;;;24.49;38.04
49459;BME280;35354;51.296;16.924;2023-05-08T07:40:32;100889.41;;;25.42;36.99
49459;BME280;35354;51.296;16.924;2023-05-08T07:42:58;100890.63;;;25.97;36.22
49459;BME280;35354;51.296;16.924;2023-05-08T07:45:23;100908.25;;;25.69;36.40
49459;BME280;35354;51.296;16.924;2023-05-08T07:47:50;100885.28;;;25.87;36.26
49459;BME280;35354;51.296;16.924;2023-05-08T07:50:16;100878.31;;;25.06;36.16
49459;BME280;35354;51.296;16.924;2023-05-08T07:52:42;100897.50;;;25.21;35.93
49459;BME280;35354;51.296;16.924;2023-05-08T07:55:07;100922.69;;;25.47;35.88
49459;BME280;35354;51.296;16.924;2023-05-08T07:57:40;100903.00;;;25.79;36.25
49459;BME280;35354;51.296;16.924;2023-05-08T08:00:07;100897.00;;;26.62;35.24
49459;BME280;35354;51.296;16.924;2023-05-08T08:02:33;100889.06;;;26.04;35.56
49459;BME280;35354;51.296;16.924;2023-05-08T08:04:58;100892.84;;;26.31;35.07
49459;BME280;35354;51.296;16.924;2023-05-08T08:07:24;100917.13;;;24.99;36.05
49459;BME280;35354;51.296;16.924;2023-05-08T08:09:50;100895.94;;;23.60;37.31
49459;BME280;35354;51.296;16.924;2023-05-08T08:12:15;100907.59;;;23.26;38.21
49459;BME280;35354;51.296;16.924;2023-05-08T08:14:40;100928.00;;;22.91;38.17
49459;BME280;35354;51.296;16.924;2023-05-08T08:17:06;100885.94;;;22.52;38.89
49459;BME280;35354;51.296;16.924;2023-05-08T08:19:31;100913.09;;;22.55;39.00
49459;BME280;35354;51.296;16.924;2023-05-08T08:21:56;100905.41;;;20.94;40.04
49459;BME280;35354;51.296;16.924;2023-05-08T08:24:22;100873.25;;;19.14;42.13
49459;BME280;35354;51.296;16.924;2023-05-08T08:26:47;100913.38;;;18.17;44.54
49459;BME280;35354;51.296;16.924;2023-05-08T08:29:13;100903.81;;;17.21;47.04
49459;BME280;35354;51.296;16.924;2023-05-08T08:31:38;100887.69;;;16.79;47.80
49459;BME280;35354;51.296;16.924;2023-05-08T08:34:03;100882.00;;;15.65;49.70
49459;BME280;35354;51.296;16.924;2023-05-08T08:36:29;100918.97;;;14.83;51.11
49459;BME280;35354;51.296;16.924;2023-05-08T08:38:54;100907.47;;;14.25;52.74
49459;BME280;35354;51.296;16.924;2023-05-08T08:41:19;100871.53;;;14.06;53.75
49459;BME280;35354;51.296;16.924;2023-05-08T08:43:46;100857.81;;;14.21;54.35
49459;BME280;35354;51.296;16.924;2023-05-08T08:46:12;100903.28;;;14.20;52.54
49459;BME280;35354;51.296;16.924;2023-05-08T08:48:43;100902.94;;;13.86;53.39
49459;BME280;35354;51.296;16.924;2023-05-08T08:51:13;100901.22;;;13.63;54.12
49459;BME280;35354;51.296;16.924;2023-05-08T08:53:45;100862.94;;;13.60;54.54
49459;BME280;35354;51.296;16.924;2023-05-08T08:56:13;100889.34;;;13.98;54.97
49459;BME280;35354;51.296;16.924;2023-05-08T08:58:47;100909.78;;;14.10;54.29
49459;BME280;35354;51.296;16.924;2023-05-08T09:01:17;100913.59;;;14.03;54.13
49459;BME280;35354;51.296;16.924;2023-05-08T09:03:43;100907.91;;;14.14;53.82
49459;BME280;35354;51.296;16.924;2023-05-08T09:06:09;100924.38;;;13.95;53.54
49459;BME280;35354;51.296;16.924;2023-05-08T09:08:34;100878.97;;;13.75;53.24
49459;BME280;35354;51.296;16.924;2023-05-08T09:11:00;100890.75;;;13.63;52.46
49459;BME280;35354;51.296;16.924;2023-05-08T09:13:27;100875.22;;;13.36;54.00
49459;BME280;35354;51.296;16.924;2023-05-08T09:15:53;100886.53;;;13.13;53.09
49459;BME280;35354;51.296;16.924;2023-05-08T09:18:18;100855.47;;;13.04;54.13
49459;BME280;35354;51.296;16.924;2023-05-08T09:20:44;100883.41;;;13.27;54.09
49459;BME280;35354;51.296;16.924;2023-05-08T09:23:10;100871.81;;;13.11;54.29
49459;BME280;35354;51.296;16.924;2023-05-08T09:25:46;100909.06;;;12.94;54.60
49459;BME280;35354;51.296;16.924;2023-05-08T09:28:17;100912.94;;;12.82;55.18
49459;BME280;35354;51.296;16.924;2023-05-08T09:30:58;100882.94;;;12.92;55.25
49459;BME280;35354;51.296;16.924;2023-05-08T09:33:28;100920.88;;;13.04;55.98
49459;BME280;35354;51.296;16.924;2023-05-08T09:35:56;100848.19;;;12.89;56.49
49459;BME280;35354;51.296;16.924;2023-05-08T09:38:35;100935.59;;;13.32;56.93
49459;BME280;35354;51.296;16.924;2023-05-08T09:41:14;100919.38;;;12.97;55.93
49459;BME280;35354;51.296;16.924;2023-05-08T09:43:41;100887.47;;;12.87;56.94
49459;BME280;35354;51.296;16.924;2023-05-08T09:46:22;100897.91;;;12.64;56.55
49459;BME280;35354;51.296;16.924;2023-05-08T09:48:49;100907.78;;;12.56;57.12
49459;BME280;35354;51.296;16.924;2023-05-08T09:51:15;100920.16;;;12.76;57.49
49459;BME280;35354;51.296;16.924;2023-05-08T09:53:40;100915.31;;;12.65;57.58
49459;BME280;35354;51.296;16.924;2023-05-08T09:56:06;100938.94;;;12.62;57.53
49459;BME280;35354;51.296;16.924;2023-05-08T10:01:04;100872.22;;;12.27;57.11
49459;BME280;35354;51.296;16.924;2023-05-08T10:03:46;100918.06;;;12.35;56.37
49459;BME280;35354;51.296;16.924;2023-05-08T10:06:12;100923.72;;;12.48;56.34
49459;BME280;35354;51.296;16.924;2023-05-08T10:08:41;100910.59;;;12.49;57.61
49459;BME280;35354;51.296;16.924;2023-05-08T10:11:17;100928.13;;;12.46;56.49
49459;BME280;35354;51.296;16.924;2023-05-08T10:13:45;100914.03;;;12.25;56.63
49459;BME280;35354;51.296;16.924;2023-05-08T10:16:15;100854.34;;;11.88;57.81
49459;BME280;35354;51.296;16.924;2023-05-08T10:18:46;100912.50;;;12.19;59.16
49459;BME280;35354;51.296;16.924;2023-05-08T10:21:13;100902.78;;;11.96;59.67
49459;BME280;35354;51.296;16.924;2023-05-08T10:23:40;100917.91;;;12.13;60.85
49459;BME280;35354;51.296;16.924;2023-05-08T10:26:11;100894.94;;;11.96;60.59
49459;BME280;35354;51.296;16.924;2023-05-08T10:28:57;100912.03;;;12.07;59.83
49459;BME280;35354;51.296;16.924;2023-05-08T10:31:30;100911.13;;;12.34;60.30
49459;BME280;35354;51.296;16.924;2023-05-08T10:34:00;100867.94;;;12.24;58.21
49459;BME280;35354;51.296;16.924;2023-05-08T10:36:26;100844.69;;;12.16;58.22
49459;BME280;35354;51.296;16.924;2023-05-08T10:38:53;100854.50;;;12.10;58.52
49459;BME280;35354;51.296;16.924;2023-05-08T10:41:21;100880.16;;;12.23;59.41
49459;BME280;35354;51.296;16.924;2023-05-08T10:43:47;100891.94;;;12.35;60.18
49459;BME280;35354;51.296;16.924;2023-05-08T10:48:59;100842.75;;;12.21;58.57
49459;BME280;35354;51.296;16.924;2023-05-08T10:51:41;100861.19;;;12.43;57.87
49459;BME280;35354;51.296;16.924;2023-05-08T10:54:12;100881.53;;;12.59;58.55
49459;BME280;35354;51.296;16.924;2023-05-08T10:56:39;100888.59;;;12.57;59.12
49459;BME280;35354;51.296;16.924;2023-05-08T10:59:05;100872.16;;;12.53;58.59
49459;BME280;35354;51.296;16.924;2023-05-08T11:01:30;100855.03;;;12.44;57.12
49459;BME280;35354;51.296;16.924;2023-05-08T11:03:56;100845.34;;;12.23;57.19
49459;BME280;35354;51.296;16.924;2023-05-08T11:06:46;100893.66;;;12.36;57.31
49459;BME280;35354;51.296;16.924;2023-05-08T11:12:24;100830.25;;;12.06;57.97
49459;BME280;35354;51.296;16.924;2023-05-08T11:15:04;100871.81;;;12.37;57.61
49459;BME280;35354;51.296;16.924;2023-05-08T11:17:31;100864.84;;;12.38;59.80
49459;BME280;35354;51.296;16.924;2023-05-08T11:19:58;100832.91;;;12.30;58.42
49459;BME280;35354;51.296;16.924;2023-05-08T11:25:00;100879.50;;;12.67;59.91
49459;BME280;35354;51.296;16.924;2023-05-08T11:27:30;100845.53;;;12.67;59.63
49459;BME280;35354;51.296;16.924;2023-05-08T11:30:18;100880.56;;;12.86;59.60
49459;BME280;35354;51.296;16.924;2023-05-08T11:35:58;100847.00;;;12.74;59.10
49459;BME280;35354;51.296;16.924;2023-05-08T11:41:20;100835.47;;;12.56;58.70
49459;BME280;35354;51.296;16.924;2023-05-08T11:46:41;100848.09;;;12.92;59.23
49459;BME280;35354;51.296;16.924;2023-05-08T11:49:11;100838.38;;;12.95;58.47
49459;BME280;35354;51.296;16.924;2023-05-08T11:51:38;100832.88;;;13.03;58.83
49459;BME280;35354;51.296;16.924;2023-05-08T11:54:10;100830.44;;;12.98;57.95
49459;BME280;35354;51.296;16.924;2023-05-08T11:56:37;100835.19;;;12.87;58.77
49459;BME280;35354;51.296;16.924;2023-05-08T11:59:07;100847.47;;;13.09;58.53
49459;BME280;35354;51.296;16.924;2023-05-08T12:01:33;100836.81;;;13.13;57.54
49459;BME280;35354;51.296;16.924;2023-05-08T12:04:05;100817.66;;;13.13;57.60
49459;BME280;35354;51.296;16.924;2023-05-08T12:06:32;100835.91;;;13.14;57.42
49459;BME280;35354;51.296;16.924;2023-05-08T12:09:01;100821.09;;;12.91;57.64
49459;BME280;35354;51.296;16.924;2023-05-08T12:11:29;100810.41;;;12.74;57.65
49459;BME280;35354;51.296;16.924;2023-05-08T12:13:54;100839.84;;;13.03;57.69
49459;BME280;35354;51.296;16.924;2023-05-08T12:16:21;100814.66;;;13.00;57.66
49459;BME280;35354;51.296;16.924;2023-05-08T12:18:50;100834.09;;;13.16;57.43
49459;BME280;35354;51.296;16.924;2023-05-08T12:21:16;100790.75;;;12.87;56.87
49459;BME280;35354;51.296;16.924;2023-05-08T12:23:42;100839.63;;;12.85;57.14
49459;BME280;35354;51.296;16.924;2023-05-08T12:26:08;100815.69;;;12.96;57.41
49459;BME280;35354;51.296;16.924;2023-05-08T12:28:34;100835.75;;;13.19;56.91
49459;BME280;35354;51.296;16.924;2023-05-08T12:31:00;100825.16;;;13.23;56.20
49459;BME280;35354;51.296;16.924;2023-05-08T12:33:25;100842.28;;;13.31;57.22
49459;BME280;35354;51.296;16.924;2023-05-08T12:35:53;100836.53;;;13.44;56.34
49459;BME280;35354;51.296;16.924;2023-05-08T12:38:24;100839.47;;;13.35;57.08
49459;BME280;35354;51.296;16.924;2023-05-08T12:40:50;100819.84;;;13.25;57.87
49459;BME280;35354;51.296;16.924;2023-05-08T12:43:34;100849.94;;;13.35;57.30
49459;BME280;35354;51.296;16.924;2023-05-08T12:46:00;100807.19;;;13.13;57.89
49459;BME280;35354;51.296;16.924;2023-05-08T12:48:26;100809.53;;;13.20;56.96
49459;BME280;35354;51.296;16.924;2023-05-08T12:50:53;100818.00;;;13.27;56.47
49459;BME280;35354;51.296;16.924;2023-05-08T12:53:19;100819.34;;;13.37;55.92
49459;BME280;35354;51.296;16.924;2023-05-08T12:56:04;100817.97;;;13.29;55.68
49459;BME280;35354;51.296;16.924;2023-05-08T12:58:34;100782.56;;;13.18;55.35
49459;BME280;35354;51.296;16.924;2023-05-08T13:01:17;100814.31;;;13.33;56.66
49459;BME280;35354;51.296;16.924;2023-05-08T13:03:43;100790.69;;;13.34;56.30
49459;BME280;35354;51.296;16.924;2023-05-08T13:06:19;100799.28;;;13.38;55.85
49459;BME280;35354;51.296;16.924;2023-05-08T13:08:45;100782.28;;;13.26;56.22
49459;BME280;35354;51.296;16.924;2023-05-08T13:11:10;100803.78;;;13.34;56.14
49459;BME280;35354;51.296;16.924;2023-05-08T13:13:36;100822.63;;;13.42;56.41
49459;BME280;35354;51.296;16.924;2023-05-08T13:16:05;100768.91;;;13.34;56.56
49459;BME280;35354;51.296;16.924;2023-05-08T13:18:31;100800.78;;;13.65;55.66
49459;BME280;35354;51.296;16.924;2023-05-08T13:20:57;100777.97;;;13.47;55.58
49459;BME280;35354;51.296;16.924;2023-05-08T13:23:23;100766.09;;;13.38;56.07
49459;BME280;35354;51.296;16.924;2023-05-08T13:25:49;100773.75;;;13.43;55.70
49459;BME280;35354;51.296;16.924;2023-05-08T13:28:15;100792.44;;;13.56;56.40
49459;BME280;35354;51.296;16.924;2023-05-08T13:30:41;100784.19;;;13.65;56.30
49459;BME280;35354;51.296;16.924;2023-05-08T13:33:06;100734.69;;;13.38;56.70
49459;BME280;35354;51.296;16.924;2023-05-08T13:35:32;100775.38;;;13.67;55.48